Three Rivers, MI

12:08 PM EDT on May 27, 2018 (GMT -0400)
Three Rivers Municipal-Haines

Weather History for KHAI - March, 2012

Change the Weather History Date:

Wednesday, March 28, 2012

  Actual Average Record
Temperature  
Mean Temperature 59 °F -  
Max Temperature 62 °F 52 °F 78 °F (1989)
Min Temperature 56 °F 32 °F 14 °F (1966)
Degree Days  
Heating Degree Days 6    
Growing Degree Days 9 (Base 50)    
Moisture  
Dew Point 46 °F    
Average Humidity 64    
Maximum Humidity 87    
Minimum Humidity 50    
Precipitation  
Precipitation 0.00 in - - ()
Sea Level Pressure  
Sea Level Pressure 29.81 in    
Wind  
Wind Speed 13 mph (WSW)    
Max Wind Speed 28 mph    
Max Gust Speed 34 mph    
Visibility 10 miles    
Events      
Averages and records for this station are not official NWS values.
T = Trace of Precipitation, MM = Missing Value Source: NWS Daily Summary

Daily Weather History Graph

Daily Weather History Graph

Search for Another Location

Airport or City:

Astronomy

Mar. 28, 2012 Rise Set
Actual Time 7:31 AM EDT 8:04 PM EDT
Civil Twilight 7:03 AM EDT 8:32 PM EDT
Nautical Twilight 6:30 AM EDT 9:05 PM EDT
Astronomical Twilight 5:55 AM EDT 9:39 PM EDT
Moon 10:42 AM EDT (3/28) 1:10 AM EDT (3/28)
Length of Visible Light 13h 29m
Length of Day
12h 33m
Waxing Crescent, 30% of the Moon is Illuminated
Mar 28
Waxing Crescent
Mar 30
First Quarter
Apr 6
Full
Apr 13
Last Quarter
Apr 21
New

Hourly Weather History & Observations

Time (EDT) Temp. Windchill Dew Point Humidity Pressure Visibility Wind Dir Wind Speed Gust Speed Precip Events Conditions
12:15 AM 58.8 °F - 41.2 °F 52% 29.84 in 10.0 mi SSW 12.7 mph 18.4 mph N/A   Mostly Cloudy
12:34 AM 58.8 °F - 41.9 °F 53% 29.83 in 10.0 mi SSW 13.8 mph 19.6 mph N/A   Mostly Cloudy
12:54 AM 58.1 °F - 42.3 °F 56% 29.83 in 10.0 mi SSW 12.7 mph 20.7 mph N/A   Scattered Clouds
1:15 AM 58.3 °F - 43.0 °F 57% 29.83 in 10.0 mi SSW 12.7 mph 19.6 mph N/A   Scattered Clouds
1:34 AM 58.6 °F - 43.5 °F 57% 29.82 in 10.0 mi SSW 12.7 mph 18.4 mph N/A   Scattered Clouds
1:54 AM 58.6 °F - 44.1 °F 58% 29.81 in 10.0 mi SSW 11.5 mph - N/A   Scattered Clouds
2:15 AM 59.0 °F - 44.8 °F 59% 29.80 in 10.0 mi SSW 11.5 mph 19.6 mph N/A   Scattered Clouds
2:34 AM 58.6 °F - 45.5 °F 62% 29.79 in 10.0 mi SSW 12.7 mph 18.4 mph N/A   Scattered Clouds
2:54 AM 58.1 °F - 45.7 °F 63% 29.79 in 10.0 mi SSW 11.5 mph 17.3 mph N/A   Clear
3:14 AM 57.4 °F - 46.2 °F 66% 29.78 in 10.0 mi SSW 9.2 mph - N/A   Scattered Clouds
3:34 AM 57.6 °F - 46.6 °F 67% 29.77 in 10.0 mi SW 6.9 mph - N/A   Scattered Clouds
3:54 AM 57.4 °F - 46.9 °F 68% 29.76 in 10.0 mi SW 5.8 mph - N/A   Clear
4:14 AM 56.5 °F - 47.8 °F 73% 29.75 in 10.0 mi SSW 5.8 mph - N/A   Clear
4:34 AM 56.7 °F - 49.5 °F 77% 29.76 in 10.0 mi SW 5.8 mph - N/A   Clear
4:55 AM 59.7 °F - 52.3 °F 77% 29.76 in 10.0 mi WSW 6.9 mph 17.3 mph N/A   Clear
5:14 AM 59.4 °F - 52.7 °F 79% 29.76 in 10.0 mi WSW 8.1 mph - N/A   Clear
5:34 AM 59.4 °F - 53.1 °F 80% 29.76 in 10.0 mi SW 6.9 mph - N/A   Clear
5:55 AM 58.1 °F - 52.9 °F 83% 29.76 in 10.0 mi SW 6.9 mph - N/A   Clear
6:14 AM 57.6 °F - 52.9 °F 84% 29.77 in 10.0 mi SW 6.9 mph - N/A   Clear
6:34 AM 57.2 °F - 52.9 °F 85% 29.77 in 10.0 mi WSW 8.1 mph - N/A   Clear
6:54 AM 56.7 °F - 52.9 °F 87% 29.77 in 10.0 mi SW 5.8 mph - N/A   Clear
7:14 AM 57.2 °F - 53.1 °F 86% 29.78 in 10.0 mi WSW 8.1 mph - N/A   Clear
7:34 AM 57.4 °F - 53.1 °F 85% 29.78 in 10.0 mi WSW 6.9 mph - N/A   Clear
7:54 AM 57.2 °F - 52.7 °F 85% 29.79 in 10.0 mi WSW 9.2 mph - N/A   Clear
8:14 AM 57.2 °F - 52.2 °F 83% 29.80 in 10.0 mi West 12.7 mph 16.1 mph N/A   Clear
8:34 AM 58.1 °F - 50.5 °F 76% 29.80 in 10.0 mi West 12.7 mph 19.6 mph N/A   Clear
8:54 AM 58.1 °F - 49.3 °F 72% 29.80 in 10.0 mi West 17.3 mph 25.3 mph N/A   Clear
9:14 AM 58.3 °F - 47.7 °F 68% 29.80 in 10.0 mi West 10.4 mph 23.0 mph N/A   Clear
9:34 AM 58.5 °F - 45.1 °F 61% 29.80 in 10.0 mi West 16.1 mph 23.0 mph N/A   Clear
9:54 AM 59.9 °F - 44.4 °F 57% 29.79 in 10.0 mi West 9.2 mph 18.4 mph N/A   Clear
10:15 AM 60.8 °F - 45.1 °F 56% 29.79 in 10.0 mi West 18.4 mph 25.3 mph N/A   Clear
10:34 AM 61.0 °F - 43.9 °F 53% 29.79 in 10.0 mi WSW 13.8 mph 23.0 mph N/A   Clear
10:54 AM 61.7 °F - 43.5 °F 51% 29.79 in 10.0 mi West 20.7 mph 27.6 mph N/A   Clear
11:14 AM 61.9 °F - 43.2 °F 50% 29.80 in 10.0 mi West 21.9 mph 33.4 mph N/A   Clear
11:34 AM 62.2 °F - 43.3 °F 50% 29.80 in 10.0 mi West 27.6 mph 33.4 mph N/A   Clear
11:54 AM 61.7 °F - 43.2 °F 51% 29.81 in 10.0 mi West 23.0 mph 34.5 mph N/A   Clear
12:14 PM 61.9 °F - 43.7 °F 51% 29.81 in 10.0 mi West 19.6 mph 29.9 mph N/A   Clear
12:34 PM 61.5 °F - 43.5 °F 52% 29.82 in 10.0 mi WNW 23.0 mph 34.5 mph N/A   Clear
12:55 PM 61.0 °F - 43.3 °F 52% 29.82 in 10.0 mi WNW 23.0 mph 33.4 mph N/A   Clear
1:14 PM 61.0 °F - 44.2 °F 54% 29.83 in 10.0 mi WNW 23.0 mph 29.9 mph N/A   Clear
1:34 PM 60.3 °F - 43.3 °F 54% 29.83 in 10.0 mi WNW 18.4 mph 32.2 mph N/A   Clear
1:54 PM 59.9 °F - 43.3 °F 54% 29.84 in 10.0 mi WNW 23.0 mph 31.1 mph N/A   Clear
2:14 PM 59.2 °F - 43.5 °F 56% 29.85 in 10.0 mi West 21.9 mph 34.5 mph N/A   Clear
2:34 PM 59.5 °F - 43.5 °F 55% 29.85 in 10.0 mi WNW 18.4 mph 28.8 mph N/A   Clear
2:54 PM 59.4 °F - 43.9 °F 57% 29.86 in 10.0 mi WNW 17.3 mph 26.5 mph N/A   Clear
3:14 PM 58.6 °F - 43.0 °F 56% 29.87 in 10.0 mi WNW 16.1 mph 27.6 mph N/A   Clear
3:34 PM 59.0 °F - 43.5 °F 56% 29.87 in 10.0 mi WNW 18.4 mph 23.0 mph N/A   Scattered Clouds
3:54 PM 58.6 °F - 43.2 °F 56% 29.87 in 10.0 mi West 21.9 mph 27.6 mph N/A   Clear
4:14 PM 58.1 °F - 42.4 °F 56% 29.87 in 10.0 mi WNW 21.9 mph 28.8 mph N/A   Clear
4:34 PM 57.9 °F - 42.4 °F 56% 29.88 in 10.0 mi WNW 20.7 mph 27.6 mph N/A   Clear
4:55 PM 57.6 °F - 42.6 °F 57% 29.88 in 10.0 mi WNW 17.3 mph 24.2 mph N/A   Clear
5:14 PM 57.2 °F - 42.8 °F 59% 29.89 in 10.0 mi WNW 13.8 mph 24.2 mph N/A   Clear
5:34 PM 56.3 °F - 41.7 °F 58% 29.90 in 10.0 mi NW 12.7 mph 18.4 mph N/A   Clear
5:55 PM 55.4 °F - 41.2 °F 59% 29.90 in 10.0 mi WNW 16.1 mph 25.3 mph N/A   Clear
6:14 PM 54.9 °F - 40.6 °F 59% 29.90 in 10.0 mi NW 12.7 mph 27.6 mph N/A   Clear
6:34 PM 54.0 °F - 39.9 °F 59% 29.91 in 10.0 mi WNW 16.1 mph 21.9 mph N/A   Clear
6:55 PM 53.1 °F - 38.5 °F 58% 29.92 in 10.0 mi NW 12.7 mph 24.2 mph N/A   Clear
7:14 PM 52.7 °F - 38.7 °F 59% 29.92 in 10.0 mi NNW 11.5 mph 17.3 mph N/A   Clear
7:34 PM 51.8 °F - 37.6 °F 58% 29.93 in 10.0 mi NNW 11.5 mph 16.1 mph N/A   Clear
7:54 PM 50.9 °F - 37.0 °F 59% 29.94 in 10.0 mi NNW 11.5 mph 19.6 mph N/A   Clear
8:14 PM 50.2 °F - 36.9 °F 60% 29.95 in 10.0 mi NNW 10.4 mph 16.1 mph N/A   Clear
8:35 PM 49.3 °F - 36.9 °F 62% 29.96 in 10.0 mi NNW 6.9 mph - N/A   Clear
8:54 PM 48.6 °F - 36.9 °F 64% 29.96 in 10.0 mi NNW 9.2 mph - N/A   Clear
9:14 PM 47.8 °F - 37.0 °F 66% 29.97 in 10.0 mi NNW 3.5 mph - N/A   Clear
9:35 PM 47.5 °F - 37.0 °F 67% 29.98 in 10.0 mi NNW 4.6 mph - N/A   Clear
9:54 PM 46.9 °F - 37.0 °F 68% 29.99 in 10.0 mi NNW 3.5 mph - N/A   Clear
10:14 PM 46.6 °F - 36.7 °F 68% 30.00 in 10.0 mi NNW 3.5 mph - N/A   Clear
10:34 PM 46.0 °F 44.8 °F 36.5 °F 69% 30.00 in 10.0 mi NNW 3.5 mph - N/A   Clear
10:54 PM 45.9 °F 44.6 °F 36.5 °F 70% 30.00 in 10.0 mi NNW 3.5 mph - N/A   Clear
11:14 PM 45.5 °F 44.2 °F 36.0 °F 69% 30.00 in 10.0 mi North 3.5 mph - N/A   Clear
11:34 PM 44.8 °F - 35.6 °F 70% 30.00 in 10.0 mi Calm Calm - N/A   Clear
11:54 PM 44.2 °F - 35.8 °F 72% 30.01 in 10.0 mi Calm Calm - N/A   Clear